createdAt,value
2022-10-04T00:00:46.705Z,84.68
2022-10-04T00:04:03.871Z,84.26
2022-10-04T00:07:22.463Z,84.61
2022-10-04T00:10:34.367Z,85.26
2022-10-04T00:13:39.496Z,85.61
2022-10-04T00:16:44.302Z,85.85
2022-10-04T00:19:51.371Z,86.37
2022-10-04T00:23:24.999Z,86.55
2022-10-04T00:26:30.633Z,86.33
2022-10-04T00:29:36.514Z,85.77
2022-10-04T00:32:39.625Z,86.13
2022-10-04T00:35:49.078Z,86.00
2022-10-04T00:39:17.480Z,85.84
2022-10-04T00:42:40.564Z,85.93
2022-10-04T00:46:08.000Z,86.06
2022-10-04T00:49:13.545Z,86.12
2022-10-04T00:52:21.334Z,86.92
2022-10-04T00:55:48.928Z,87.29
2022-10-04T00:58:54.551Z,87.70
2022-10-04T01:02:07.221Z,87.36
2022-10-04T01:05:17.433Z,88.30
2022-10-04T01:08:34.549Z,87.58
2022-10-04T01:11:48.024Z,87.85
2022-10-04T01:15:06.406Z,86.89
2022-10-04T01:18:31.191Z,86.87
2022-10-04T01:21:38.506Z,85.91
2022-10-04T01:24:43.756Z,85.41
2022-10-04T01:27:48.179Z,85.26
2022-10-04T01:30:51.154Z,85.30
2022-10-04T01:33:57.533Z,85.17
2022-10-04T01:37:01.276Z,85.19
2022-10-04T01:40:04.608Z,85.27
2022-10-04T01:43:10.401Z,85.86
2022-10-04T01:46:25.844Z,86.41
2022-10-04T01:49:34.657Z,85.97
2022-10-04T01:52:45.995Z,85.70
2022-10-04T01:55:54.566Z,86.65
2022-10-04T01:59:06.911Z,85.99
2022-10-04T02:02:21.650Z,86.37
2022-10-04T02:05:33.493Z,87.82
2022-10-04T02:08:41.172Z,87.88
2022-10-04T02:11:47.055Z,88.85
2022-10-04T02:14:56.073Z,89.02
2022-10-04T02:17:59.773Z,89.31
2022-10-04T02:21:06.987Z,89.88
2022-10-04T02:24:12.307Z,91.00
2022-10-04T02:27:15.610Z,91.86
2022-10-04T02:30:18.665Z,91.30
2022-10-04T02:33:22.880Z,92.66
2022-10-04T02:36:28.755Z,92.08
2022-10-04T02:39:40.567Z,92.50
2022-10-04T02:42:50.200Z,93.16
2022-10-04T02:46:00.580Z,92.60
2022-10-04T02:52:30.406Z,91.39
2022-10-04T02:55:33.590Z,91.66
2022-10-04T02:58:39.971Z,90.69
2022-10-04T03:01:47.930Z,89.80
2022-10-04T03:04:53.077Z,91.11
2022-10-04T03:07:56.678Z,90.86
2022-10-04T03:11:02.261Z,91.81
2022-10-04T03:14:10.365Z,91.10
2022-10-04T03:17:16.357Z,91.40
2022-10-04T03:20:21.449Z,91.97
2022-10-04T03:23:24.231Z,91.51
2022-10-04T03:26:41.210Z,91.09
2022-10-04T03:29:45.594Z,90.92
2022-10-04T03:32:50.751Z,90.80
2022-10-04T03:35:56.880Z,90.30
2022-10-04T03:39:00.197Z,90.13
2022-10-04T03:42:14.845Z,89.60
2022-10-04T03:45:20.755Z,89.40
2022-10-04T03:48:31.590Z,89.38
2022-10-04T03:51:35.080Z,89.00
2022-10-04T03:54:38.156Z,89.36
2022-10-04T03:57:41.709Z,88.94
2022-10-04T04:00:58.853Z,88.48
2022-10-04T04:04:22.468Z,88.58
2022-10-04T04:07:44.176Z,90.04
2022-10-04T04:10:52.698Z,90.25
2022-10-04T04:14:04.443Z,89.83
2022-10-04T04:17:25.965Z,91.30
2022-10-04T04:20:33.853Z,91.85
2022-10-04T04:23:40.369Z,92.19
2022-10-04T04:26:48.390Z,91.85
2022-10-04T04:29:53.019Z,92.37
2022-10-04T04:32:58.103Z,91.96
2022-10-04T04:36:07.008Z,91.57
2022-10-04T04:39:33.161Z,91.29
2022-10-04T04:42:36.983Z,91.08
2022-10-04T04:45:40.185Z,90.74
2022-10-04T04:48:48.851Z,91.12
2022-10-04T04:51:52.738Z,91.03
2022-10-04T04:54:56.895Z,90.93
2022-10-04T04:58:00.306Z,90.86
2022-10-04T05:01:03.322Z,90.59
2022-10-04T05:04:20.136Z,90.17
2022-10-04T05:07:23.146Z,89.65
2022-10-04T05:10:34.128Z,89.77
2022-10-04T05:14:02.995Z,89.58
2022-10-04T05:17:06.510Z,89.69
2022-10-04T05:20:13.679Z,90.36
2022-10-04T05:23:17.650Z,90.17
2022-10-04T05:26:27.921Z,90.30
2022-10-04T05:29:35.494Z,90.24
2022-10-04T05:32:43.475Z,90.46
2022-10-04T05:36:12.132Z,90.51
2022-10-04T05:39:35.174Z,90.76
2022-10-04T05:42:46.485Z,90.38
2022-10-04T05:46:15.901Z,90.87
2022-10-04T05:49:20.823Z,90.59
2022-10-04T05:52:36.960Z,90.59
2022-10-04T05:56:21.517Z,90.66
2022-10-04T06:00:09.610Z,90.67
2022-10-04T06:03:29.673Z,90.92
2022-10-04T06:06:59.974Z,90.73
2022-10-04T06:10:27.229Z,90.52
2022-10-04T06:14:00.490Z,90.32
2022-10-04T06:17:09.372Z,90.46
2022-10-04T06:20:16.994Z,90.32
2022-10-04T06:23:21.331Z,90.17
2022-10-04T06:26:44.004Z,89.76
2022-10-04T06:29:56.581Z,89.08
2022-10-04T06:33:29.076Z,88.75
2022-10-04T06:36:53.330Z,88.57
2022-10-04T06:40:22.610Z,88.12
2022-10-04T06:43:50.581Z,87.87
2022-10-04T06:47:09.846Z,87.27
2022-10-04T06:50:26.618Z,87.03
2022-10-04T06:53:53.817Z,86.48
2022-10-04T06:57:36.528Z,85.99
2022-10-04T07:00:54.481Z,85.55
2022-10-04T07:04:23.892Z,85.38
2022-10-04T07:07:35.851Z,84.62
2022-10-04T07:10:52.193Z,84.67
2022-10-04T07:14:06.962Z,84.24
2022-10-04T07:17:20.113Z,83.75
2022-10-04T07:20:36.020Z,83.37
2022-10-04T07:23:54.054Z,83.19
2022-10-04T07:26:57.436Z,83.13
2022-10-04T07:30:07.148Z,83.04
2022-10-04T07:33:18.369Z,82.62
2022-10-04T07:36:50.042Z,82.52
2022-10-04T07:40:17.638Z,82.17
2022-10-04T07:43:34.294Z,82.23
2022-10-04T07:46:51.311Z,82.49
2022-10-04T07:49:54.944Z,81.67
2022-10-04T07:53:18.506Z,81.55
2022-10-04T07:56:51.331Z,81.10
2022-10-04T07:59:57.950Z,81.28
2022-10-04T08:03:09.830Z,80.69
2022-10-04T08:06:21.663Z,80.70
2022-10-04T08:09:37.935Z,80.18
2022-10-04T08:12:53.379Z,80.04
2022-10-04T08:16:03.285Z,79.58
2022-10-04T08:19:12.824Z,79.29
2022-10-04T08:22:51.255Z,79.29
2022-10-04T08:26:32.941Z,78.96
2022-10-04T08:30:09.357Z,78.12
2022-10-04T08:33:23.131Z,77.76
2022-10-04T08:36:44.838Z,76.98
2022-10-04T08:40:15.385Z,76.10
2022-10-04T08:43:30.871Z,74.36
2022-10-04T08:46:53.405Z,74.32
2022-10-04T08:50:23.789Z,71.81
2022-10-04T08:53:52.347Z,70.19
2022-10-04T08:57:22.204Z,68.30
2022-10-04T09:00:50.954Z,69.81
2022-10-04T09:04:15.388Z,69.58
2022-10-04T09:07:33.970Z,70.94
2022-10-04T09:10:54.726Z,70.89
2022-10-04T09:14:03.414Z,71.10
2022-10-04T09:17:22.618Z,70.55
2022-10-04T09:20:38.910Z,69.77
2022-10-04T09:24:23.604Z,70.13
2022-10-04T09:28:00.841Z,69.55
2022-10-04T09:31:24.510Z,68.29
2022-10-04T09:35:06.453Z,67.87
2022-10-04T09:38:40.421Z,66.79
2022-10-04T09:41:53.769Z,67.75
2022-10-04T09:45:06.299Z,68.05
2022-10-04T09:48:22.627Z,69.26
2022-10-04T09:52:02.028Z,70.14
2022-10-04T09:55:34.026Z,69.74
2022-10-04T09:59:04.390Z,69.39
2022-10-04T10:02:31.681Z,69.15
2022-10-04T10:05:45.536Z,68.87
2022-10-04T10:09:04.199Z,68.53
2022-10-04T10:12:49.049Z,68.51
2022-10-04T10:16:10.294Z,67.81
2022-10-04T10:19:35.380Z,66.05
2022-10-04T10:23:06.634Z,61.11
2022-10-04T10:26:36.744Z,59.96
2022-10-04T10:29:59.542Z,62.40
2022-10-04T10:33:20.820Z,62.43
2022-10-04T10:36:52.528Z,63.44
2022-10-04T10:40:19.938Z,64.85
2022-10-04T10:43:55.716Z,66.41
2022-10-04T10:47:29.720Z,65.96
2022-10-04T10:51:10.955Z,66.50
2022-10-04T10:54:32.572Z,67.44
2022-10-04T10:57:56.252Z,68.59
2022-10-04T11:01:09.913Z,71.35
2022-10-04T11:04:35.893Z,74.37
2022-10-04T11:07:51.866Z,74.99
2022-10-04T11:11:30.462Z,77.06
2022-10-04T11:15:01.271Z,77.96
2022-10-04T11:18:22.731Z,77.48
2022-10-04T11:21:53.128Z,78.89
2022-10-04T11:25:08.057Z,79.21
2022-10-04T11:28:38.415Z,78.15
2022-10-04T11:32:03.151Z,77.78
2022-10-04T11:35:31.037Z,75.73
2022-10-04T11:38:51.944Z,74.71
2022-10-04T11:42:32.275Z,75.64
2022-10-04T11:46:09.886Z,74.11
2022-10-04T11:49:36.644Z,72.61
2022-10-04T11:52:54.120Z,72.15
2022-10-04T11:56:34.402Z,72.72
2022-10-04T12:00:01.073Z,71.79
2022-10-04T12:03:23.264Z,72.68
2022-10-04T12:07:02.955Z,73.43
2022-10-04T12:10:20.592Z,73.61
2022-10-04T12:13:39.622Z,75.34
2022-10-04T12:16:57.333Z,74.66
2022-10-04T12:20:48.587Z,73.38
2022-10-04T12:24:09.360Z,72.89
2022-10-04T12:27:44.077Z,72.62
2022-10-04T12:31:08.855Z,71.76
2022-10-04T12:34:15.135Z,72.83
2022-10-04T12:37:38.888Z,70.13
2022-10-04T12:41:05.182Z,68.34
2022-10-04T12:44:19.751Z,66.28
2022-10-04T12:47:34.969Z,64.38
2022-10-04T12:51:10.959Z,63.25
2022-10-04T12:54:35.032Z,61.21
2022-10-04T12:57:55.656Z,60.20
2022-10-04T13:01:15.754Z,56.49
2022-10-04T13:04:24.277Z,54.38
2022-10-04T13:07:37.259Z,51.28
2022-10-04T13:11:02.578Z,50.70
2022-10-04T13:14:23.685Z,51.23
2022-10-04T13:17:59.985Z,52.75
2022-10-04T13:21:11.690Z,54.95
2022-10-04T13:24:53.256Z,57.09
2022-10-04T13:28:05.897Z,58.85
2022-10-04T13:31:16.354Z,59.95
2022-10-04T13:34:46.425Z,61.36
2022-10-04T13:38:02.263Z,62.28
2022-10-04T13:41:29.518Z,63.07
2022-10-04T13:44:55.218Z,63.87
2022-10-04T13:48:31.302Z,64.18
2022-10-04T13:52:24.543Z,64.62
2022-10-04T13:56:00.990Z,65.75
2022-10-04T13:59:37.597Z,66.38
2022-10-04T14:02:46.339Z,67.09
2022-10-04T14:05:52.129Z,66.96
2022-10-04T14:09:22.046Z,66.65
2022-10-04T14:12:34.295Z,67.45
2022-10-04T14:15:57.475Z,67.67
2022-10-04T14:19:09.586Z,68.37
2022-10-04T14:22:36.623Z,67.45
2022-10-04T14:25:42.483Z,67.31
2022-10-04T14:29:15.656Z,67.81
2022-10-04T14:33:02.236Z,68.19
2022-10-04T14:36:27.055Z,68.04
2022-10-04T14:39:35.122Z,68.59
2022-10-04T14:42:50.593Z,68.52
2022-10-04T14:45:56.485Z,69.15
2022-10-04T14:49:31.006Z,68.88
2022-10-04T14:53:11.689Z,68.75
2022-10-04T14:56:38.869Z,69.39
2022-10-04T15:00:06.922Z,69.83
2022-10-04T15:03:48.537Z,69.52
2022-10-04T15:07:04.425Z,70.48
2022-10-04T15:10:35.755Z,71.16
2022-10-04T15:13:56.706Z,71.12
2022-10-04T15:17:01.425Z,72.00
2022-10-04T15:20:36.003Z,72.30
2022-10-04T15:23:47.588Z,73.19
2022-10-04T15:27:27.929Z,74.30
2022-10-04T15:30:55.803Z,74.79
2022-10-04T15:34:20.462Z,75.54
2022-10-04T15:37:36.164Z,76.08
2022-10-04T15:41:02.262Z,76.75
2022-10-04T15:44:17.070Z,77.19
2022-10-04T15:47:33.958Z,77.52
2022-10-04T15:50:55.072Z,77.13
2022-10-04T15:54:18.614Z,78.07
2022-10-04T15:57:42.969Z,80.26
2022-10-04T16:00:54.883Z,80.01
2022-10-04T16:04:16.487Z,80.31
2022-10-04T16:07:40.536Z,80.78
2022-10-04T16:11:09.613Z,81.42
2022-10-04T16:14:20.215Z,82.11
2022-10-04T16:17:32.020Z,82.37
2022-10-04T16:21:13.039Z,82.68
2022-10-04T16:24:22.127Z,83.45
2022-10-04T16:27:50.730Z,83.69
2022-10-04T16:31:21.280Z,82.92
2022-10-04T16:34:52.029Z,85.68
2022-10-04T16:38:15.098Z,85.07
2022-10-04T16:41:34.720Z,84.97
2022-10-04T16:44:50.686Z,85.85
2022-10-04T16:48:12.315Z,84.74
2022-10-04T16:51:18.193Z,84.82
2022-10-04T16:54:58.133Z,84.96
2022-10-04T16:58:30.684Z,84.66
2022-10-04T17:01:43.577Z,84.70
2022-10-04T17:05:02.873Z,84.35
2022-10-04T17:08:17.613Z,83.25
2022-10-04T17:11:43.929Z,82.66
2022-10-04T17:14:57.309Z,84.02
2022-10-04T17:18:23.349Z,84.37
2022-10-04T17:21:55.365Z,84.99
2022-10-04T17:25:22.319Z,86.11
2022-10-04T17:28:56.613Z,86.59
2022-10-04T17:32:46.903Z,86.20
2022-10-04T17:36:10.643Z,85.90
2022-10-04T17:39:34.952Z,86.55
2022-10-04T17:42:40.262Z,86.04
2022-10-04T17:46:26.781Z,85.84
2022-10-04T17:49:53.879Z,85.99
2022-10-04T17:53:22.195Z,85.55
2022-10-04T17:56:35.240Z,85.75
2022-10-04T17:59:49.004Z,86.21
2022-10-04T18:03:06.931Z,86.15
2022-10-04T18:06:29.165Z,87.54
2022-10-04T18:09:44.371Z,87.12
2022-10-04T18:12:56.914Z,86.89
2022-10-04T18:16:41.655Z,86.33
2022-10-04T18:19:50.912Z,86.54
2022-10-04T18:23:24.896Z,86.20
2022-10-04T18:26:33.540Z,86.46
2022-10-04T18:29:42.351Z,87.05
2022-10-04T18:32:55.177Z,86.43
2022-10-04T18:36:14.950Z,85.98
2022-10-04T18:39:23.327Z,86.67
2022-10-04T18:42:30.343Z,87.42
2022-10-04T18:45:35.111Z,87.57
2022-10-04T18:48:54.615Z,86.68
2022-10-04T18:52:16.551Z,88.28
2022-10-04T18:55:30.913Z,88.04
2022-10-04T18:59:04.948Z,87.46
2022-10-04T19:02:36.108Z,87.21
2022-10-04T19:05:54.793Z,88.41
2022-10-04T19:09:07.160Z,88.06
2022-10-04T19:12:16.941Z,87.38
2022-10-04T19:15:39.774Z,87.88
2022-10-04T19:19:07.429Z,87.32
2022-10-04T19:22:31.767Z,88.45
2022-10-04T19:25:39.393Z,88.01
2022-10-04T19:28:45.085Z,87.50
2022-10-04T19:32:00.609Z,87.87
2022-10-04T19:35:24.947Z,86.59
2022-10-04T19:38:43.568Z,86.59
2022-10-04T19:42:00.544Z,85.98
2022-10-04T19:45:21.511Z,86.43
2022-10-04T19:48:27.487Z,85.91
2022-10-04T19:51:51.433Z,86.18
2022-10-04T19:55:03.148Z,86.60
2022-10-04T19:58:28.113Z,86.50
2022-10-04T20:01:32.352Z,86.83
2022-10-04T20:04:36.359Z,87.25
2022-10-04T20:07:39.703Z,87.07
2022-10-04T20:10:44.852Z,87.16
2022-10-04T20:14:17.737Z,87.12
2022-10-04T20:17:31.824Z,87.03
2022-10-04T20:20:44.080Z,86.89
2022-10-04T20:23:49.512Z,86.78
2022-10-04T20:26:54.160Z,87.98
2022-10-04T20:30:04.956Z,88.84
2022-10-04T20:33:08.103Z,90.00
2022-10-04T20:36:35.910Z,88.71
2022-10-04T20:39:41.251Z,89.10
2022-10-04T20:42:44.203Z,88.72
2022-10-04T20:45:55.317Z,89.65
2022-10-04T20:48:58.826Z,89.74
2022-10-04T20:52:01.543Z,89.60
2022-10-04T20:55:28.466Z,88.82
2022-10-04T20:58:35.329Z,88.78
2022-10-04T21:01:41.236Z,88.00
2022-10-04T21:04:46.781Z,87.19
2022-10-04T21:07:49.755Z,87.44
2022-10-04T21:11:16.971Z,88.24
2022-10-04T21:14:27.647Z,87.92
2022-10-04T21:17:30.316Z,88.89
2022-10-04T21:21:02.133Z,92.58
2022-10-04T21:24:27.532Z,93.30
2022-10-04T21:27:40.143Z,91.07
2022-10-04T21:30:42.789Z,90.63
2022-10-04T21:33:45.745Z,90.82
2022-10-04T21:36:48.605Z,89.73
2022-10-04T21:39:51.805Z,88.18
2022-10-04T21:42:54.429Z,88.66
2022-10-04T21:45:57.586Z,88.17
2022-10-04T21:49:00.218Z,87.20
2022-10-04T21:52:03.341Z,87.88
2022-10-04T21:55:10.751Z,89.10
2022-10-04T21:58:14.956Z,89.62
2022-10-04T22:01:17.737Z,89.34
2022-10-04T22:04:20.703Z,88.41
2022-10-04T22:07:23.428Z,88.49
2022-10-04T22:10:26.645Z,88.49
2022-10-04T22:13:29.290Z,89.33
2022-10-04T22:16:32.363Z,89.42
2022-10-04T22:19:35.673Z,88.71
2022-10-04T22:22:40.116Z,87.96
2022-10-04T22:25:42.851Z,89.51
2022-10-04T22:28:49.862Z,89.27
2022-10-04T22:31:52.798Z,88.37
2022-10-04T22:35:02.231Z,89.51
2022-10-04T22:38:06.153Z,89.29
2022-10-04T22:41:13.513Z,88.43
2022-10-04T22:44:21.306Z,87.77
2022-10-04T22:47:25.309Z,87.56
2022-10-04T22:50:32.638Z,86.82
2022-10-04T22:53:35.662Z,87.32
2022-10-04T22:56:40.164Z,87.28
2022-10-04T22:59:46.434Z,87.75
2022-10-04T23:02:49.233Z,88.51
2022-10-04T23:05:52.354Z,89.17
2022-10-04T23:08:55.289Z,89.61
2022-10-04T23:11:58.215Z,88.91
2022-10-04T23:15:02.323Z,88.78
2022-10-04T23:18:16.225Z,89.01
2022-10-04T23:21:24.365Z,89.33
2022-10-04T23:24:30.335Z,89.62
2022-10-04T23:27:34.363Z,89.45
2022-10-04T23:30:37.330Z,89.88
2022-10-04T23:33:41.262Z,89.88
2022-10-04T23:36:48.728Z,89.44
2022-10-04T23:39:51.813Z,89.52
2022-10-04T23:42:56.967Z,89.52
2022-10-04T23:45:59.790Z,89.88
2022-10-04T23:49:02.940Z,89.65
2022-10-04T23:52:14.075Z,89.95
2022-10-04T23:55:27.292Z,90.32
2022-10-04T23:58:36.773Z,91.05
